Time;durP1;ratioP1;P1;durP2;ratioP2;P2;SDS_P1;SDS_P2;PMS_P1;PMS_P2;Temp;Humidity;BMP_temperature;BMP_pressure;BME280_temperature;BME280_humidity;BME280_pressure;Samples;Min_cycle;Max_cycle;Signal;HPM_P1;HPM_P2
2021/09/14 00:01:08;;;;;;;9.90;5.95;;;;;;;12.49;76.98;95163.47;5080654;28;20097;-70
2021/09/14 00:03:35;;;;;;;10.30;5.30;;;;;;;12.40;76.43;95160.44;5068156;28;20048;-69
2021/09/14 00:06:02;;;;;;;6.20;4.80;;;;;;;12.35;76.02;95162.94;5068690;28;20403;-69
2021/09/14 00:08:29;;;;;;;9.90;5.70;;;;;;;12.33;76.37;95160.56;5083111;28;20066;-70
2021/09/14 00:10:56;;;;;;;11.18;6.28;;;;;;;12.24;76.92;95161.97;5087881;28;20058;-70
2021/09/14 00:13:23;;;;;;;9.38;6.00;;;;;;;12.16;76.79;95155.31;5068297;28;20048;-70
2021/09/14 00:15:49;;;;;;;8.38;6.05;;;;;;;12.05;76.13;95159.53;5068611;28;20049;-68
2021/09/14 00:18:16;;;;;;;9.75;6.07;;;;;;;12.03;76.83;95160.81;5071441;28;20036;-68
2021/09/14 00:20:43;;;;;;;9.70;6.15;;;;;;;11.94;76.58;95157.75;5071915;28;20040;-68
2021/09/14 00:23:10;;;;;;;9.80;6.28;;;;;;;11.91;77.06;95160.81;5073476;28;20468;-68
2021/09/14 00:25:37;;;;;;;10.60;6.35;;;;;;;11.86;77.34;95161.47;5080087;28;20522;-68
2021/09/14 00:28:04;;;;;;;9.73;6.18;;;;;;;11.79;77.39;95162.63;5087852;28;20452;-68
2021/09/14 00:30:30;;;;;;;9.77;6.38;;;;;;;11.80;77.85;95166.84;5070192;28;20043;-68
2021/09/14 00:32:57;;;;;;;9.27;5.95;;;;;;;11.75;77.98;95169.34;5078338;28;20036;-68
2021/09/14 00:35:24;;;;;;;11.60;5.88;;;;;;;11.69;78.24;95165.03;5080758;28;20071;-68
2021/09/14 00:37:51;;;;;;;10.57;6.55;;;;;;;11.65;78.62;95170.72;5057531;28;20045;-70
2021/09/14 00:40:17;;;;;;;8.55;5.85;;;;;;;11.59;78.78;95163.78;5083634;28;20421;-70
2021/09/14 00:42:44;;;;;;;10.07;5.35;;;;;;;11.55;79.27;95165.28;5081006;28;20040;-70
2021/09/14 00:45:11;;;;;;;11.27;5.88;;;;;;;11.53;79.49;95172.53;5064285;28;20048;-70
2021/09/14 00:47:39;;;;;;;13.75;6.32;;;;;;;11.49;79.69;95155.75;5072146;28;20043;-70
2021/09/14 00:50:06;;;;;;;11.50;5.93;;;;;;;11.42;81.21;95165.50;5083127;28;20491;-70
2021/09/14 00:52:36;;;;;;;14.00;5.43;;;;;;;11.45;81.63;95171.06;5056176;28;20044;-70
2021/09/14 00:55:04;;;;;;;9.38;5.95;;;;;;;11.42;81.93;95155.88;5057140;28;20560;-70
2021/09/14 00:57:31;;;;;;;9.80;5.28;;;;;;;11.47;81.81;95170.84;5081439;28;20518;-70
2021/09/14 00:59:58;;;;;;;12.30;6.75;;;;;;;11.50;81.43;95161.75;5082486;28;20409;-70
2021/09/14 01:02:24;;;;;;;10.35;6.05;;;;;;;11.47;81.34;95157.81;5085850;28;20040;-70
2021/09/14 01:04:52;;;;;;;10.23;6.35;;;;;;;11.43;81.19;95169.69;5077374;28;20059;-69
2021/09/14 01:07:19;;;;;;;12.25;6.85;;;;;;;11.42;80.82;95170.72;5084727;28;21646;-70
2021/09/14 01:09:47;;;;;;;10.93;6.35;;;;;;;11.40;82.41;95173.56;5072005;28;20391;-70
2021/09/14 01:12:14;;;;;;;9.52;5.63;;;;;;;11.32;81.72;95165.28;5087301;28;20119;-69
2021/09/14 01:14:50;;;;;;;8.07;5.38;;;;;;;11.25;81.03;95161.00;5081429;28;20047;-70
2021/09/14 01:17:17;;;;;;;6.95;5.03;;;;;;;11.19;81.74;95167.09;5056937;28;20036;-69
2021/09/14 01:19:44;;;;;;;9.20;5.50;;;;;;;11.26;81.99;95172.97;5049789;28;20430;-69
2021/09/14 01:22:13;;;;;;;9.45;5.82;;;;;;;11.13;81.80;95162.78;5076245;28;20036;-69
2021/09/14 01:24:40;;;;;;;9.68;5.68;;;;;;;11.12;81.97;95166.41;5061266;28;20047;-70
2021/09/14 01:27:07;;;;;;;12.07;6.32;;;;;;;11.14;81.94;95169.56;5063007;28;20420;-70
2021/09/14 01:32:25;;;;;;;11.75;6.70;;;;;;;11.02;81.91;95166.16;5072998;28;20040;-70
2021/09/14 01:34:53;;;;;;;12.88;6.18;;;;;;;10.93;81.22;95159.69;5077528;28;20416;-70
2021/09/14 01:37:21;;;;;;;15.60;7.45;;;;;;;10.93;81.21;95167.50;5063818;28;20040;-69
2021/09/14 01:39:49;;;;;;;11.32;6.57;;;;;;;10.83;81.14;95168.84;5064060;28;20128;-70
2021/09/14 01:42:16;;;;;;;11.73;6.22;;;;;;;10.76;81.14;95165.56;5053708;28;20060;-69
2021/09/14 01:44:43;;;;;;;7.35;5.15;;;;;;;10.75;81.37;95166.59;5052342;28;20041;-70
2021/09/14 01:47:12;;;;;;;10.90;6.15;;;;;;;10.69;82.08;95164.84;5062334;28;20514;-70
2021/09/14 01:49:39;;;;;;;11.13;6.55;;;;;;;10.60;82.00;95158.38;5053581;28;20040;-70
2021/09/14 01:52:06;;;;;;;9.90;5.82;;;;;;;10.62;82.04;95167.53;5067160;28;20040;-71
2021/09/14 01:54:33;;;;;;;10.70;6.45;;;;;;;10.64;82.46;95175.16;5065279;28;20063;-70
2021/09/14 01:57:00;;;;;;;9.15;6.15;;;;;;;10.54;82.56;95159.28;5083608;28;20558;-70
2021/09/14 01:59:29;;;;;;;8.75;5.82;;;;;;;10.55;82.93;95164.25;5079849;28;20044;-70
2021/09/14 02:02:10;;;;;;;12.25;6.78;;;;;;;10.51;83.07;95161.31;5061624;28;20048;-70
2021/09/14 03:00:11;;;;;;;9.13;5.78;;;;;;;10.28;85.87;95188.03;5067573;28;20418;-70
2021/09/14 03:02:38;;;;;;;8.43;5.50;;;;;;;10.26;85.88;95190.06;5064124;28;20097;-70
2021/09/14 03:05:09;;;;;;;7.88;4.90;;;;;;;10.19;85.45;95184.13;5062073;28;20044;-70
2021/09/14 03:07:35;;;;;;;7.82;5.30;;;;;;;10.18;85.34;95195.56;5075614;28;20041;-70
2021/09/14 03:10:03;;;;;;;9.85;5.72;;;;;;;10.17;85.29;95188.75;5063666;28;20052;-70
2021/09/14 03:12:30;;;;;;;9.07;5.95;;;;;;;10.11;85.19;95192.25;5060495;28;20437;-71
2021/09/14 03:14:57;;;;;;;11.32;5.75;;;;;;;10.08;85.42;95193.47;5055599;28;20071;-70
2021/09/14 03:17:24;;;;;;;9.90;6.85;;;;;;;10.05;84.83;95191.31;5058015;28;20044;-71
2021/09/14 03:19:52;;;;;;;12.75;6.05;;;;;;;9.98;85.39;95193.19;5061852;28;20052;-71
2021/09/14 03:22:19;;;;;;;10.93;6.40;;;;;;;9.99;85.88;95193.97;5051725;28;20048;-71
2021/09/14 03:24:47;;;;;;;9.75;6.05;;;;;;;9.94;86.44;95192.03;5063119;28;20045;-71
2021/09/14 03:27:16;;;;;;;11.25;6.38;;;;;;;9.91;86.32;95202.88;5065292;28;20087;-70
2021/09/14 03:29:43;;;;;;;11.25;6.10;;;;;;;9.88;86.91;95203.31;5058348;28;20128;-70
2021/09/14 03:32:10;;;;;;;12.40;6.72;;;;;;;9.85;87.33;95198.53;5056070;28;20114;-70
2021/09/14 03:34:41;;;;;;;12.63;6.63;;;;;;;9.83;87.56;95200.56;5048493;28;20475;-70
2021/09/14 03:37:07;;;;;;;10.77;6.32;;;;;;;9.86;87.55;95200.91;5064934;28;20402;-70
2021/09/14 03:39:35;;;;;;;10.15;6.32;;;;;;;9.68;87.49;95180.09;5060036;28;20072;-70
2021/09/14 03:42:08;;;;;;;11.80;7.00;;;;;;;9.75;87.46;95189.41;5065321;28;20536;-71
2021/09/14 03:44:35;;;;;;;12.48;7.43;;;;;;;9.82;87.89;95204.19;5079219;28;20043;-70
2021/09/14 03:47:02;;;;;;;13.27;6.95;;;;;;;9.81;88.48;95199.97;5047610;28;20064;-70
2021/09/14 03:49:33;;;;;;;9.68;6.75;;;;;;;9.80;88.56;95198.41;5061123;28;20049;-70
2021/09/14 03:52:00;;;;;;;11.63;6.63;;;;;;;9.68;88.41;95191.28;5049989;28;20060;-70
2021/09/14 03:54:30;;;;;;;15.43;7.25;;;;;;;9.74;88.03;95203.44;5081850;28;20044;-70
2021/09/14 03:56:57;;;;;;;13.45;8.27;;;;;;;9.72;88.14;95200.28;5058452;28;20047;-71
2021/09/14 03:59:25;;;;;;;11.63;6.93;;;;;;;9.72;88.47;95202.06;5068623;28;20044;-71
2021/09/14 04:01:56;;;;;;;13.27;6.95;;;;;;;9.71;88.87;95206.47;5066249;28;20044;-70
2021/09/14 04:09:21;;;;;;;12.00;7.57;;;;;;;9.79;90.49;95207.22;5067448;28;20047;-70
2021/09/14 04:11:51;;;;;;;11.13;6.68;;;;;;;9.85;90.67;95224.53;5065212;28;20075;-70
2021/09/14 04:14:21;;;;;;;12.50;6.47;;;;;;;9.86;90.30;95226.13;5066394;28;20583;-70
2021/09/14 04:16:48;;;;;;;12.70;6.78;;;;;;;9.83;89.61;95229.16;5071952;28;20039;-70
2021/09/14 04:19:15;;;;;;;8.57;6.28;;;;;;;9.84;89.04;95222.97;5058290;28;20093;-70
2021/09/14 04:21:42;;;;;;;11.38;6.63;;;;;;;9.83;88.83;95226.56;5055492;28;20130;-70
2021/09/14 04:24:13;;;;;;;9.63;5.95;;;;;;;9.76;88.50;95219.63;5062960;28;20432;-71
2021/09/14 04:26:40;;;;;;;10.85;6.90;;;;;;;9.77;88.29;95229.00;5056392;28;20936;-70
2021/09/14 04:29:07;;;;;;;12.32;6.40;;;;;;;9.82;88.51;95240.59;5059681;28;20498;-70
2021/09/14 04:31:34;;;;;;;14.75;7.10;;;;;;;9.79;88.58;95233.22;5055162;28;20045;-72
2021/09/14 04:34:02;;;;;;;11.20;6.68;;;;;;;9.73;88.52;95253.88;5067122;28;20071;-72
2021/09/14 04:36:29;;;;;;;11.55;6.00;;;;;;;9.69;88.46;95244.91;5062555;28;20098;-71
2021/09/14 04:38:56;;;;;;;12.88;6.35;;;;;;;9.74;88.33;95252.88;5059951;28;20506;-71
2021/09/14 04:41:23;;;;;;;10.15;6.35;;;;;;;9.80;88.63;95255.63;5051236;28;20037;-71
2021/09/14 04:43:49;;;;;;;10.55;6.60;;;;;;;9.81;88.55;95259.81;5081492;28;20055;-70
2021/09/14 04:46:16;;;;;;;13.68;6.07;;;;;;;9.84;88.45;95259.38;5058895;28;20060;-70
2021/09/14 04:48:43;;;;;;;15.30;7.30;;;;;;;9.72;88.84;95247.09;5062921;28;20467;-71
2021/09/14 04:51:10;;;;;;;11.55;6.60;;;;;;;9.83;88.90;95257.78;5064837;28;20043;-71
2021/09/14 04:53:38;;;;;;;15.63;7.60;;;;;;;9.84;89.05;95259.38;5086295;28;20032;-70
2021/09/14 04:56:04;;;;;;;11.25;7.00;;;;;;;9.84;89.00;95254.19;5049858;28;20041;-71
2021/09/14 04:58:36;;;;;;;15.05;6.68;;;;;;;9.93;89.66;95252.88;5063402;28;20177;-70
2021/09/14 05:01:06;;;;;;;14.73;6.85;;;;;;;10.00;89.19;95253.59;5058355;28;20085;-70
2021/09/14 05:03:33;;;;;;;16.23;7.05;;;;;;;10.04;89.66;95262.56;5060613;28;20050;-71
2021/09/14 05:06:00;;;;;;;13.15;8.00;;;;;;;10.06;90.30;95252.72;5069649;28;20048;-71
2021/09/14 05:08:29;;;;;;;14.82;7.85;;;;;;;10.14;90.54;95249.06;5069155;28;20137;-71
2021/09/14 05:10:58;;;;;;;12.48;7.63;;;;;;;10.21;90.45;95259.38;5075105;28;20040;-71
2021/09/14 05:13:25;;;;;;;12.02;6.63;;;;;;;10.30;90.70;95258.09;5067750;28;20035;-71
2021/09/14 05:15:54;;;;;;;10.18;7.18;;;;;;;10.32;90.52;95256.09;5049571;28;20041;-71
2021/09/14 05:18:47;;;;;;;9.82;6.35;;;;;;;10.41;90.74;95260.00;5056202;28;20047;-71
2021/09/14 05:21:15;;;;;;;13.82;7.97;;;;;;;10.54;91.11;95274.66;5049458;28;20133;-70
2021/09/14 05:23:42;;;;;;;14.38;8.52;;;;;;;10.62;91.29;95265.75;5051117;28;20045;-70
2021/09/14 05:26:11;;;;;;;14.02;7.70;;;;;;;10.77;90.89;95263.56;5077469;28;20051;-70
2021/09/14 05:28:40;;;;;;;12.43;6.63;;;;;;;10.88;90.40;95264.59;5049257;28;20044;-68
2021/09/14 05:31:08;;;;;;;17.80;8.05;;;;;;;11.07;90.28;95273.16;5073392;28;20093;-69
2021/09/14 05:33:36;;;;;;;14.38;7.43;;;;;;;11.16;89.56;95271.81;5075677;28;20036;-69
2021/09/14 05:36:04;;;;;;;14.93;7.88;;;;;;;11.24;89.17;95276.72;5063825;28;20043;-69
2021/09/14 05:38:33;;;;;;;11.70;6.32;;;;;;;11.36;88.86;95275.94;5060156;28;20048;-70
2021/09/14 05:41:00;;;;;;;9.88;7.10;;;;;;;11.42;88.35;95269.84;5058034;28;20049;-69
2021/09/14 05:43:32;;;;;;;14.15;7.03;;;;;;;11.58;87.49;95274.38;5053566;28;20131;-69
2021/09/14 05:46:03;;;;;;;10.48;6.18;;;;;;;11.70;86.72;95276.19;5055912;28;20086;-69
2021/09/14 05:48:32;;;;;;;13.57;6.47;;;;;;;11.82;87.21;95274.38;5054043;28;20044;-69
2021/09/14 05:50:59;;;;;;;13.82;7.18;;;;;;;11.95;86.56;95274.19;5077702;28;20040;-69
2021/09/14 05:53:28;;;;;;;9.27;6.65;;;;;;;12.11;87.30;95280.53;5047122;28;20046;-70
2021/09/14 05:55:56;;;;;;;9.90;6.25;;;;;;;12.23;87.00;95280.53;5054001;28;20048;-70
2021/09/14 05:58:26;;;;;;;9.07;6.45;;;;;;;12.34;85.91;95284.13;5059381;28;20040;-70
2021/09/14 06:00:53;;;;;;;12.45;6.28;;;;;;;12.51;86.15;95284.97;5062355;28;20047;-70
2021/09/14 06:03:26;;;;;;;9.85;5.95;;;;;;;12.66;85.60;95283.69;5056499;28;20119;-70
2021/09/14 06:05:53;;;;;;;9.32;5.68;;;;;;;12.83;84.48;95289.78;5058664;28;20044;-70
2021/09/14 06:08:21;;;;;;;13.10;6.35;;;;;;;12.95;82.21;95281.91;5050763;28;20051;-70
2021/09/14 06:10:50;;;;;;;8.63;4.47;;;;;;;13.08;82.56;95281.59;5063179;28;20071;-70
2021/09/14 06:13:18;;;;;;;8.38;5.70;;;;;;;13.31;83.89;95285.94;5059801;28;20117;-71
2021/09/14 06:15:45;;;;;;;8.43;6.13;;;;;;;13.42;84.84;95281.66;5063494;28;20707;-71
2021/09/14 06:18:19;;;;;;;9.32;6.32;;;;;;;13.56;83.95;95287.38;5057732;28;20039;-71
2021/09/14 06:20:47;;;;;;;12.13;6.82;;;;;;;13.62;82.88;95286.44;5055992;28;20532;-70
2021/09/14 06:23:14;;;;;;;9.95;6.32;;;;;;;13.78;82.79;95295.31;5051521;28;20119;-71
2021/09/14 06:25:41;;;;;;;9.85;6.28;;;;;;;13.84;82.79;95291.72;5058810;28;20158;-71
2021/09/14 06:28:08;;;;;;;9.30;6.38;;;;;;;13.92;82.80;95288.72;5060927;28;20048;-70
2021/09/14 06:30:35;;;;;;;11.35;6.88;;;;;;;14.05;82.39;95294.66;5059721;28;20087;-71
2021/09/14 06:33:03;;;;;;;11.25;6.10;;;;;;;14.20;80.62;95292.22;5056225;28;20786;-71
2021/09/14 06:35:35;;;;;;;8.85;5.40;;;;;;;14.32;78.33;95290.28;5059345;28;20044;-71
2021/09/14 06:38:10;;;;;;;7.95;4.78;;;;;;;14.43;75.70;95279.94;5053814;28;20033;-71
2021/09/14 06:40:37;;;;;;;11.10;5.30;;;;;;;14.60;74.29;95283.28;5055020;28;20039;-70
2021/09/14 06:43:04;;;;;;;7.55;5.32;;;;;;;14.88;74.80;95297.25;5058594;28;20066;-70
2021/09/14 06:46:00;;;;;;;10.15;5.82;;;;;;;14.95;74.50;95295.22;5068570;28;20125;-71
2021/09/14 06:48:32;;;;;;;9.48;5.90;;;;;;;15.12;75.08;95296.97;5056322;28;20131;-70
2021/09/14 06:51:00;;;;;;;7.70;5.53;;;;;;;15.28;74.15;95301.31;5079271;28;20056;-70
2021/09/14 06:53:29;;;;;;;10.38;5.68;;;;;;;15.44;72.47;95300.41;5080660;28;20068;-70
2021/09/14 06:55:56;;;;;;;8.27;5.05;;;;;;;15.62;72.08;95295.84;5075245;28;20048;-70
2021/09/14 06:58:31;;;;;;;9.48;5.68;;;;;;;15.77;71.20;95298.63;5056873;28;20142;-70
2021/09/14 07:00:57;;;;;;;13.40;6.45;;;;;;;15.79;70.18;95301.78;5077851;28;20044;-70
2021/09/14 07:03:25;;;;;;;10.20;6.55;;;;;;;15.89;70.05;95305.50;5076268;28;20048;-70
2021/09/14 07:05:53;;;;;;;9.85;6.22;;;;;;;15.97;69.55;95303.22;5071117;28;20049;-71
2021/09/14 07:08:20;;;;;;;12.07;6.32;;;;;;;16.07;67.98;95297.22;5069446;28;20040;-68
2021/09/14 07:10:47;;;;;;;10.35;5.80;;;;;;;16.24;68.05;95308.38;5080215;28;20101;-70
2021/09/14 07:13:14;;;;;;;8.70;5.65;;;;;;;16.39;66.16;95314.75;5056423;28;20053;-70
2021/09/14 07:15:41;;;;;;;9.65;6.25;;;;;;;16.50;63.69;95300.59;5065421;28;20044;-69
2021/09/14 07:18:08;;;;;;;7.47;5.35;;;;;;;16.68;64.12;95311.72;5066072;28;20036;-69
2021/09/14 07:20:35;;;;;;;8.38;5.20;;;;;;;16.79;63.47;95313.34;5078619;28;20574;-69
2021/09/14 07:23:02;;;;;;;7.60;5.05;;;;;;;16.93;62.92;95303.16;5054423;28;20052;-69
2021/09/14 07:25:29;;;;;;;9.07;5.15;;;;;;;17.11;62.95;95313.19;5064412;28;20056;-69
2021/09/14 07:27:55;;;;;;;9.50;5.40;;;;;;;17.27;61.73;95316.66;5070219;28;20036;-70
2021/09/14 07:30:22;;;;;;;7.28;5.03;;;;;;;17.36;59.37;95307.19;5076977;28;20060;-69
2021/09/14 07:32:54;;;;;;;9.05;5.28;;;;;;;17.48;58.59;95314.03;5078295;28;20429;-70
2021/09/14 07:35:22;;;;;;;6.85;4.70;;;;;;;17.67;59.47;95309.81;5078770;28;20040;-70
2021/09/14 07:37:49;;;;;;;7.00;4.90;;;;;;;17.88;58.33;95315.09;5066868;28;20051;-71
2021/09/14 07:40:16;;;;;;;10.27;4.85;;;;;;;18.11;56.81;95317.22;5071049;28;20041;-70
2021/09/14 07:42:43;;;;;;;7.05;4.57;;;;;;;18.34;57.55;95320.31;5079640;28;20041;-70
2021/09/14 07:45:10;;;;;;;7.10;5.15;;;;;;;18.39;58.22;95311.63;5068866;28;20040;-71
2021/09/14 07:47:37;;;;;;;6.20;4.47;;;;;;;18.44;57.14;95304.47;5083461;28;20708;-71
2021/09/14 07:50:04;;;;;;;6.20;4.22;;;;;;;18.61;58.10;95308.63;5083129;28;20141;-71
2021/09/14 07:52:31;;;;;;;6.95;4.72;;;;;;;18.84;55.63;95312.53;5072970;28;20060;-71
2021/09/14 07:54:58;;;;;;;7.65;5.00;;;;;;;18.83;53.60;95301.16;5066591;28;20036;-71
2021/09/14 07:57:25;;;;;;;8.13;4.43;;;;;;;18.91;53.74;95294.56;5080938;28;20070;-71
2021/09/14 07:59:52;;;;;;;5.50;3.83;;;;;;;19.10;52.97;95305.25;5083318;28;20044;-70
2021/09/14 08:02:19;;;;;;;9.25;4.78;;;;;;;19.24;55.02;95300.16;5086236;28;20056;-71
2021/09/14 08:04:45;;;;;;;7.07;4.68;;;;;;;19.36;53.76;95302.47;5075400;28;21765;-70
2021/09/14 08:07:12;;;;;;;12.00;4.78;;;;;;;19.58;52.85;95300.19;5081999;28;20535;-70
2021/09/14 08:09:39;;;;;;;8.95;4.57;;;;;;;19.83;53.85;95306.38;5078056;28;20095;-70
2021/09/14 08:12:06;;;;;;;7.70;4.88;;;;;;;19.85;52.81;95298.94;5077854;28;20060;-71
2021/09/14 08:14:33;;;;;;;5.88;4.45;;;;;;;19.96;52.35;95308.34;5070065;28;20040;-69
2021/09/14 08:17:00;;;;;;;8.98;4.63;;;;;;;20.10;51.96;95305.06;5083128;28;20113;-70
2021/09/14 08:19:27;;;;;;;11.10;4.55;;;;;;;20.12;50.17;95287.84;5080265;28;20036;-69
2021/09/14 08:21:54;;;;;;;5.70;3.95;;;;;;;20.34;49.44;95295.28;5077824;28;20060;-69
2021/09/14 08:24:21;;;;;;;5.72;3.83;;;;;;;20.38;47.62;95288.38;5077655;28;20697;-69
2021/09/14 08:26:48;;;;;;;6.90;4.28;;;;;;;20.48;47.45;95284.03;5077410;28;20061;-70
2021/09/14 08:29:17;;;;;;;10.35;4.68;;;;;;;20.55;48.10;95268.63;5052016;28;20049;-69
2021/09/14 08:31:44;;;;;;;5.85;3.47;;;;;;;20.74;46.59;95277.41;5072541;28;20510;-69
2021/09/14 08:34:11;;;;;;;9.73;4.40;;;;;;;20.96;46.95;95273.44;5082040;28;20515;-69
2021/09/14 08:36:37;;;;;;;7.32;4.28;;;;;;;21.13;45.52;95284.28;5086418;28;20055;-69
2021/09/14 08:39:04;;;;;;;6.40;3.78;;;;;;;21.29;44.27;95284.09;5075001;28;20032;-69
2021/09/14 08:41:31;;;;;;;6.43;4.03;;;;;;;21.38;44.46;95279.69;5072981;28;20060;-70
2021/09/14 08:43:59;;;;;;;5.38;4.22;;;;;;;21.32;43.74;95265.75;5067184;28;20106;-69
2021/09/14 08:46:25;;;;;;;10.68;4.15;;;;;;;21.41;43.31;95257.94;5086264;28;20395;-69
2021/09/14 08:48:52;;;;;;;5.78;3.67;;;;;;;21.54;44.18;95273.13;5084757;28;20048;-69
2021/09/14 08:51:19;;;;;;;6.88;4.40;;;;;;;21.67;44.19;95254.91;5086266;28;20052;-69
2021/09/14 08:53:46;;;;;;;5.18;3.45;;;;;;;21.87;45.03;95269.66;5051628;28;20117;-69
2021/09/14 08:56:13;;;;;;;4.95;4.18;;;;;;;22.00;45.60;95266.25;5077081;28;20066;-68
2021/09/14 08:58:40;;;;;;;6.90;4.35;;;;;;;22.30;44.17;95259.63;5057587;28;20048;-68
2021/09/14 09:01:13;;;;;;;9.23;4.20;;;;;;;22.59;42.56;95263.84;5087093;28;20064;-68
2021/09/14 09:03:40;;;;;;;5.88;3.70;;;;;;;22.80;43.69;95261.56;5086097;28;20111;-68
2021/09/14 09:06:07;;;;;;;6.40;4.05;;;;;;;22.91;44.68;95265.56;5084966;28;20109;-68
2021/09/14 09:08:34;;;;;;;4.80;3.40;;;;;;;23.14;40.38;95251.56;5076077;28;20075;-68
2021/09/14 09:11:12;;;;;;;5.63;3.67;;;;;;;23.43;40.02;95254.59;5080966;28;20047;-69
2021/09/14 09:13:44;;;;;;;8.05;3.58;;;;;;;23.68;40.62;95255.09;5083887;28;20044;-68
2021/09/14 09:16:21;;;;;;;9.25;4.13;;;;;;;23.79;40.36;95255.63;5086684;28;20070;-68
2021/09/14 09:18:59;;;;;;;7.00;4.53;;;;;;;24.00;39.47;95245.25;5073017;28;20052;-68
2021/09/14 09:21:40;;;;;;;7.78;3.65;;;;;;;24.18;38.81;95252.25;5078007;28;20553;-67
2021/09/14 09:24:09;;;;;;;7.03;3.67;;;;;;;24.55;36.82;95250.19;5073020;28;20433;-68
2021/09/14 09:26:42;;;;;;;4.10;3.15;;;;;;;24.90;35.61;95236.16;5073082;28;20173;-68
2021/09/14 09:29:11;;;;;;;8.45;3.97;;;;;;;25.33;34.79;95244.16;5086189;28;20468;-68
2021/09/14 09:31:44;;;;;;;7.55;3.58;;;;;;;25.76;34.61;95237.97;5081509;28;20056;-68
2021/09/14 09:34:12;;;;;;;3.78;3.15;;;;;;;26.26;33.67;95243.84;5069485;28;20094;-68
2021/09/14 09:36:42;;;;;;;5.15;3.35;;;;;;;26.62;30.44;95237.25;5077835;28;20117;-68
2021/09/14 09:39:14;;;;;;;4.20;3.15;;;;;;;26.52;30.72;95241.81;5072848;28;20139;-68
2021/09/14 09:41:55;;;;;;;3.90;2.85;;;;;;;26.80;30.34;95236.03;5077663;28;20086;-68
2021/09/14 09:44:23;;;;;;;3.15;2.80;;;;;;;26.94;29.27;95234.97;5075894;28;20433;-68
2021/09/14 09:46:57;;;;;;;4.03;2.63;;;;;;;27.22;30.85;95211.94;5078595;28;20044;-68
2021/09/14 09:49:25;;;;;;;5.10;3.03;;;;;;;27.62;29.54;95219.50;5075994;28;20043;-68
2021/09/14 09:51:54;;;;;;;4.82;2.58;;;;;;;28.05;30.06;95222.03;5079297;28;20520;-68
2021/09/14 09:54:21;;;;;;;5.30;3.05;;;;;;;27.59;30.31;95217.47;5067100;28;20533;-68
2021/09/14 09:56:49;;;;;;;3.85;2.42;;;;;;;27.96;27.48;95209.53;5067717;28;20060;-67
2021/09/14 09:59:17;;;;;;;3.92;2.38;;;;;;;27.74;27.33;95217.94;5077738;28;20044;-67
2021/09/14 10:02:18;;;;;;;4.47;2.58;;;;;;;28.13;28.61;95215.81;5079155;28;20055;-68
2021/09/14 10:05:02;;;;;;;3.95;2.30;;;;;;;28.74;24.98;95215.81;5072090;28;20123;-67
2021/09/14 10:07:31;;;;;;;3.83;2.50;;;;;;;29.23;24.42;95203.41;5078523;28;20513;-68
2021/09/14 10:10:00;;;;;;;12.95;2.55;;;;;;;29.55;22.19;95202.38;5073339;28;20036;-67
2021/09/14 10:12:30;;;;;;;2.17;1.85;;;;;;;29.71;23.83;95212.34;5073436;28;20578;-67
2021/09/14 10:15:02;;;;;;;3.88;2.38;;;;;;;29.87;22.69;95210.50;5066508;28;20039;-67
2021/09/14 10:17:30;;;;;;;2.75;1.67;;;;;;;30.03;21.82;95201.66;5072188;28;20048;-67
2021/09/14 10:20:10;;;;;;;4.10;2.00;;;;;;;30.36;22.46;95204.00;5070158;28;20037;-68
2021/09/14 10:22:38;;;;;;;2.58;1.80;;;;;;;30.59;20.40;95206.81;5065555;28;20051;-67
2021/09/14 10:25:07;;;;;;;4.07;1.88;;;;;;;30.94;20.88;95206.06;5075848;28;20029;-68
2021/09/14 10:27:41;;;;;;;2.70;2.13;;;;;;;31.13;18.77;95207.97;5068537;28;20047;-68
2021/09/14 10:30:13;;;;;;;3.10;1.70;;;;;;;31.13;18.72;95207.19;5065366;28;20044;-67
2021/09/14 10:32:41;;;;;;;2.83;1.98;;;;;;;30.79;20.46;95194.22;5067237;28;20060;-68
2021/09/14 10:35:10;;;;;;;2.45;1.35;;;;;;;31.11;18.63;95201.41;5072566;28;22090;-68
2021/09/14 10:37:38;;;;;;;7.53;1.50;;;;;;;31.34;18.63;95196.84;5068703;28;20055;-69
2021/09/14 10:40:15;;;;;;;4.32;1.80;;;;;;;31.44;18.55;95200.91;5067683;28;20041;-68
2021/09/14 10:42:45;;;;;;;2.63;1.67;;;;;;;31.87;18.90;95190.13;5086809;28;20048;-68
2021/09/14 10:45:17;;;;;;;3.35;1.77;;;;;;;32.26;18.43;95195.41;5067856;28;20044;-67
2021/09/14 10:47:47;;;;;;;2.83;1.73;;;;;;;31.95;18.10;95181.03;5076513;28;20044;-67
2021/09/14 10:50:28;;;;;;;2.00;1.58;;;;;;;32.35;18.09;95172.44;5081803;28;20036;-67
2021/09/14 10:53:00;;;;;;;3.20;1.70;;;;;;;32.31;18.93;95192.41;5069662;28;20047;-67
2021/09/14 10:55:29;;;;;;;3.60;1.67;;;;;;;31.65;19.62;95184.34;5075987;28;20052;-67
2021/09/14 10:58:01;;;;;;;5.68;2.42;;;;;;;32.14;18.03;95178.28;5072388;28;20064;-68
2021/09/14 11:00:31;;;;;;;2.10;1.40;;;;;;;32.38;20.94;95176.34;5072422;28;20037;-67
2021/09/14 11:03:03;;;;;;;2.47;1.92;;;;;;;31.97;21.30;95184.13;5052489;28;20043;-67
2021/09/14 11:05:32;;;;;;;2.67;1.73;;;;;;;32.14;20.09;95172.91;5077722;28;20047;-67
2021/09/14 11:08:06;;;;;;;1.63;1.48;;;;;;;32.09;19.59;95175.91;5078065;28;20097;-67
2021/09/14 11:10:39;;;;;;;2.53;1.83;;;;;;;31.78;20.75;95172.28;5088278;28;20093;-67
2021/09/14 11:13:08;;;;;;;3.53;1.90;;;;;;;31.97;19.34;95179.50;5081307;28;20036;-67
2021/09/14 11:15:36;;;;;;;2.55;1.50;;;;;;;31.67;21.53;95174.00;5071347;28;20059;-67
2021/09/14 11:18:03;;;;;;;2.20;1.80;;;;;;;31.35;21.68;95179.59;5084014;28;20044;-67
2021/09/14 11:20:30;;;;;;;3.13;2.40;;;;;;;31.86;18.33;95169.72;5082128;28;20039;-67
2021/09/14 11:23:00;;;;;;;5.10;2.00;;;;;;;31.75;20.45;95173.00;5078854;28;20045;-67
2021/09/14 11:25:29;;;;;;;2.47;1.92;;;;;;;33.04;17.94;95167.97;5073760;28;20415;-66
2021/09/14 11:28:07;;;;;;;3.28;2.30;;;;;;;33.76;18.09;95171.47;5080279;28;20108;-67
2021/09/14 11:30:40;;;;;;;4.07;2.35;;;;;;;33.65;18.35;95169.44;5081865;28;20040;-66
2021/09/14 11:33:07;;;;;;;2.97;1.88;;;;;;;34.23;18.01;95159.13;5076108;28;20048;-66
2021/09/14 11:35:36;;;;;;;3.33;2.03;;;;;;;34.55;18.83;95163.94;5088825;28;20519;-66
2021/09/14 11:38:08;;;;;;;2.30;2.08;;;;;;;34.67;17.63;95171.75;5072052;28;20053;-67
2021/09/14 11:40:50;;;;;;;2.85;2.03;;;;;;;34.60;17.08;95161.66;5081859;28;20036;-66
2021/09/14 11:43:19;;;;;;;2.30;1.75;;;;;;;34.30;17.67;95164.56;5089855;28;20043;-67
2021/09/14 11:45:46;;;;;;;2.00;1.63;;;;;;;33.70;18.13;95162.91;5081698;28;20051;-66
2021/09/14 11:48:18;;;;;;;2.63;2.10;;;;;;;33.43;19.07;95157.63;5089983;28;20059;-66
2021/09/14 11:50:46;;;;;;;3.53;1.95;;;;;;;33.21;19.70;95148.53;5054179;28;20094;-66
2021/09/14 11:53:14;;;;;;;2.53;1.85;;;;;;;33.79;19.48;95162.63;5069554;28;20518;-66
2021/09/14 11:55:50;;;;;;;3.03;2.08;;;;;;;33.61;18.71;95160.50;5070515;28;20048;-67
2021/09/14 11:58:34;;;;;;;3.17;2.10;;;;;;;32.96;19.25;95157.09;5079553;28;20064;-66
2021/09/14 12:01:07;;;;;;;2.90;2.30;;;;;;;32.94;20.46;95158.59;5063109;28;20040;-66
2021/09/14 12:03:51;;;;;;;3.05;2.40;;;;;;;33.07;21.18;95154.50;5085430;28;20040;-66
2021/09/14 12:06:25;;;;;;;2.45;2.00;;;;;;;33.48;19.36;95156.53;5088941;28;20409;-67
2021/09/14 12:08:55;;;;;;;2.28;1.63;;;;;;;34.36;18.07;95159.56;5069806;28;20529;-67
2021/09/14 12:11:30;;;;;;;3.25;2.25;;;;;;;34.62;17.37;95142.34;5087438;28;20036;-67
2021/09/14 12:14:03;;;;;;;2.65;2.03;;;;;;;34.92;17.59;95154.91;5076228;28;20052;-67
2021/09/14 12:16:39;;;;;;;4.53;2.10;;;;;;;34.31;17.69;95149.91;5075541;28;20417;-68
2021/09/14 12:19:09;;;;;;;4.53;2.95;;;;;;;34.27;18.94;95127.50;5076796;28;20044;-67
2021/09/14 12:21:36;;;;;;;2.15;1.95;;;;;;;33.80;18.59;95142.53;5084380;28;20048;-66
2021/09/14 12:24:03;;;;;;;4.60;2.13;;;;;;;33.81;18.71;95133.31;5065219;28;20044;-67
2021/09/14 12:26:40;;;;;;;5.28;2.40;;;;;;;33.02;20.76;95132.47;5078804;28;20456;-67
2021/09/14 12:29:09;;;;;;;10.13;2.72;;;;;;;31.70;21.00;95138.31;5068189;28;20037;-66
2021/09/14 12:31:36;;;;;;;6.03;2.90;;;;;;;31.40;21.04;95128.16;5068376;28;20090;-66
2021/09/14 12:34:03;;;;;;;2.75;2.22;;;;;;;31.74;21.03;95133.75;5068309;28;20040;-66
2021/09/14 12:36:30;;;;;;;3.38;2.22;;;;;;;32.52;20.23;95133.41;5066546;28;20040;-67
2021/09/14 12:38:57;;;;;;;2.85;2.05;;;;;;;32.94;19.38;95131.63;5062772;28;20060;-66
2021/09/14 12:41:24;;;;;;;3.63;1.95;;;;;;;32.91;19.28;95116.94;5072888;28;20049;-67
2021/09/14 12:43:51;;;;;;;2.75;2.25;;;;;;;33.06;19.01;95133.28;5080335;28;20040;-66